createdAt,value
2022-12-04T00:01:44.587Z,101097.03
2022-12-04T00:06:53.972Z,101095.44
2022-12-04T00:12:00.652Z,101078.88
2022-12-04T00:17:04.212Z,101069.38
2022-12-04T00:22:10.388Z,101064.16
2022-12-04T00:27:13.950Z,101062.41
2022-12-04T00:32:17.518Z,101066.06
2022-12-04T00:37:22.716Z,101061.66
2022-12-04T00:42:26.291Z,101054.72
2022-12-04T00:47:29.860Z,101057.41
2022-12-04T00:52:35.084Z,101047.88
2022-12-04T00:57:38.637Z,101045.34
2022-12-04T01:02:42.214Z,101065.31
2022-12-04T01:07:47.555Z,101055.75
2022-12-04T01:12:51.864Z,101063.50
2022-12-04T01:17:55.400Z,101050.59
2022-12-04T01:23:00.636Z,101041.06
2022-12-04T01:28:04.295Z,101044.47
2022-12-04T01:33:08.464Z,101043.63
2022-12-04T01:38:13.683Z,101064.56
2022-12-04T01:43:17.527Z,101046.22
2022-12-04T01:48:27.116Z,101063.69
2022-12-04T01:53:34.507Z,101066.31
2022-12-04T01:58:43.885Z,101072.28
2022-12-04T02:03:47.488Z,101077.59
2022-12-04T02:08:52.868Z,101082.84
2022-12-04T02:14:08.729Z,101065.50
2022-12-04T02:19:33.750Z,101079.34
2022-12-04T02:24:50.571Z,101078.63
2022-12-04T02:30:03.145Z,101090.84
2022-12-04T02:35:13.966Z,101084.69
2022-12-04T02:40:23.977Z,101076.84
2022-12-04T02:45:34.684Z,101074.19
2022-12-04T02:50:41.163Z,101083.72
2022-12-04T02:55:48.808Z,101102.81
2022-12-04T03:00:55.703Z,101097.59
2022-12-04T03:06:03.786Z,101119.34
2022-12-04T03:11:07.657Z,101082.97
2022-12-04T03:16:16.569Z,101085.84
2022-12-04T03:21:23.796Z,101084.09
2022-12-04T03:26:30.061Z,101077.94
2022-12-04T03:31:41.158Z,101078.13
2022-12-04T03:36:53.419Z,101073.69
2022-12-04T03:42:02.522Z,101083.19
2022-12-04T03:47:12.728Z,101074.41
2022-12-04T03:52:21.787Z,101089.13
2022-12-04T03:57:29.045Z,101071.88
2022-12-04T04:02:38.532Z,101057.97
2022-12-04T04:07:48.580Z,101081.34
2022-12-04T04:12:57.010Z,101110.84
2022-12-04T04:18:03.262Z,101080.53
2022-12-04T04:23:10.389Z,101102.19
2022-12-04T04:28:35.270Z,101098.75
2022-12-04T04:33:48.823Z,101100.50
2022-12-04T04:39:01.400Z,101105.81
2022-12-04T04:44:17.034Z,101117.09
2022-12-04T04:49:25.206Z,101122.25
2022-12-04T04:54:30.784Z,101130.31
2022-12-04T04:59:34.354Z,101130.25
2022-12-04T05:04:39.514Z,101117.13
2022-12-04T05:09:43.075Z,101126.69
2022-12-04T05:14:48.247Z,101127.63
2022-12-04T05:19:53.824Z,101142.38
2022-12-04T05:24:57.733Z,101133.81
2022-12-04T05:30:01.312Z,101137.34
2022-12-04T05:35:11.139Z,101142.47
2022-12-04T05:40:15.432Z,101149.34
2022-12-04T05:45:19.180Z,101145.94
2022-12-04T05:50:24.438Z,101151.16
2022-12-04T05:55:28.022Z,101162.53
2022-12-04T06:00:33.582Z,101162.69
2022-12-04T06:05:38.778Z,101161.81
2022-12-04T06:10:42.471Z,101168.72
2022-12-04T06:15:46.061Z,101168.81
2022-12-04T06:20:52.503Z,101165.25
2022-12-04T06:25:56.378Z,101161.78
2022-12-04T06:31:02.687Z,101142.59
2022-12-04T06:36:15.176Z,101152.34
2022-12-04T06:41:21.344Z,101157.19
2022-12-04T06:46:26.599Z,101148.22
2022-12-04T06:51:33.506Z,101164.53
2022-12-04T06:56:37.193Z,101161.84
2022-12-04T07:01:40.937Z,101170.31
2022-12-04T07:06:46.181Z,101170.34
2022-12-04T07:11:49.719Z,101175.00
2022-12-04T07:16:53.460Z,101168.81
2022-12-04T07:21:58.705Z,101169.78
2022-12-04T07:27:03.015Z,101167.13
2022-12-04T07:32:07.460Z,101166.44
2022-12-04T07:37:12.848Z,101174.91
2022-12-04T07:42:21.002Z,101164.84
2022-12-04T07:47:27.473Z,101177.25
2022-12-04T07:52:35.980Z,101173.81
2022-12-04T07:57:39.523Z,101168.88
2022-12-04T08:02:43.072Z,101181.03
2022-12-04T08:07:48.463Z,101171.56
2022-12-04T08:12:52.056Z,101174.22
2022-12-04T08:17:56.064Z,101180.28
2022-12-04T08:23:01.287Z,101185.50
2022-12-04T08:28:04.877Z,101179.50
2022-12-04T08:33:08.417Z,101167.41
2022-12-04T08:38:14.517Z,101165.66
2022-12-04T08:43:18.116Z,101157.00
2022-12-04T08:48:21.732Z,101147.47
2022-12-04T08:53:28.042Z,101158.81
2022-12-04T08:58:31.639Z,101166.63
2022-12-04T09:03:35.582Z,101171.78
2022-12-04T09:08:40.826Z,101173.47
2022-12-04T09:13:45.283Z,101171.72
2022-12-04T09:18:49.763Z,101178.72
2022-12-04T09:23:54.953Z,101183.06
2022-12-04T09:29:00.968Z,101205.53
2022-12-04T09:34:04.861Z,101176.94
2022-12-04T09:39:11.744Z,101185.66
2022-12-04T09:44:22.297Z,101180.41
2022-12-04T09:49:30.256Z,101173.47
2022-12-04T09:54:41.477Z,101173.56
2022-12-04T09:59:45.731Z,101184.78
2022-12-04T10:04:51.410Z,101189.88
2022-12-04T10:10:00.607Z,101201.00
2022-12-04T10:15:15.133Z,101195.72
2022-12-04T10:20:36.780Z,101190.34
2022-12-04T10:25:43.959Z,101196.31
2022-12-04T10:30:49.352Z,101205.75
2022-12-04T10:35:54.858Z,101208.34
2022-12-04T10:41:07.757Z,101213.38
2022-12-04T10:46:19.399Z,101222.84
2022-12-04T10:51:23.446Z,101225.56
2022-12-04T10:56:28.615Z,101228.09
2022-12-04T11:01:34.109Z,101235.03
2022-12-04T11:06:38.789Z,101226.25
2022-12-04T11:11:44.518Z,101220.06
2022-12-04T11:16:50.414Z,101220.09
2022-12-04T11:21:55.450Z,101220.94
2022-12-04T11:27:02.877Z,101232.22
2022-12-04T11:32:08.443Z,101221.75
2022-12-04T11:37:21.846Z,101231.28
2022-12-04T11:42:31.031Z,101243.53
2022-12-04T11:47:34.639Z,101239.09
2022-12-04T11:52:51.941Z,101244.28
2022-12-04T11:58:13.454Z,101233.97
2022-12-04T12:03:23.964Z,101233.22
2022-12-04T12:08:37.765Z,101236.66
2022-12-04T12:13:53.952Z,101235.88
2022-12-04T12:19:18.502Z,101235.00
2022-12-04T12:24:29.787Z,101235.81
2022-12-04T12:29:56.515Z,101236.69
2022-12-04T12:35:01.378Z,101233.19
2022-12-04T12:40:11.347Z,101240.94
2022-12-04T12:45:27.933Z,101243.69
2022-12-04T12:50:36.693Z,101246.25
2022-12-04T12:55:45.237Z,101248.81
2022-12-04T13:00:57.133Z,101259.28
2022-12-04T13:06:06.828Z,101259.25
2022-12-04T13:11:14.444Z,101270.63
2022-12-04T13:16:25.213Z,101272.28
2022-12-04T13:21:36.517Z,101284.44
2022-12-04T13:26:49.423Z,101294.03
2022-12-04T13:32:04.001Z,101293.13
2022-12-04T13:37:34.348Z,101300.06
2022-12-04T13:42:37.952Z,101302.69
2022-12-04T13:47:43.142Z,101305.28
2022-12-04T13:52:47.142Z,101320.78
2022-12-04T13:57:55.504Z,101326.84
2022-12-04T14:03:04.286Z,101324.38
2022-12-04T14:08:22.292Z,101331.41
2022-12-04T14:13:29.368Z,101336.63
2022-12-04T14:18:34.777Z,101339.31
2022-12-04T14:23:40.495Z,101349.72
2022-12-04T14:28:44.074Z,101359.22
2022-12-04T14:33:53.215Z,101374.91
2022-12-04T14:39:13.123Z,101364.50
2022-12-04T14:44:29.077Z,101370.63
2022-12-04T14:49:47.240Z,101383.63
2022-12-04T14:54:57.804Z,101389.72
2022-12-04T15:00:01.791Z,101396.69
2022-12-04T15:05:11.259Z,101402.75
2022-12-04T15:10:21.028Z,101417.28
2022-12-04T15:15:27.465Z,101414.59
2022-12-04T15:20:39.069Z,101413.66
2022-12-04T15:25:46.789Z,101426.63
2022-12-04T15:30:52.255Z,101411.91
2022-12-04T15:36:01.166Z,101429.22
2022-12-04T15:41:05.484Z,101431.03
2022-12-04T15:46:13.963Z,101433.56
2022-12-04T15:51:22.053Z,101433.63
2022-12-04T15:56:25.634Z,101444.88
2022-12-04T16:01:38.452Z,101446.63
2022-12-04T16:06:49.760Z,101461.44
2022-12-04T16:12:00.843Z,101451.91
2022-12-04T16:17:06.491Z,101469.34
2022-12-04T16:22:20.089Z,101477.94
2022-12-04T16:27:25.168Z,101482.19
2022-12-04T16:32:32.359Z,101496.84
2022-12-04T16:37:37.616Z,101494.16
2022-12-04T16:42:41.960Z,101495.81
2022-12-04T16:47:45.802Z,101487.91
2022-12-04T16:52:51.280Z,101500.75
2022-12-04T16:57:54.867Z,101505.84
2022-12-04T17:02:59.074Z,101510.28
2022-12-04T17:08:04.370Z,101519.81
2022-12-04T17:13:07.940Z,101518.91
2022-12-04T17:18:15.073Z,101530.88
2022-12-04T17:23:22.927Z,101533.31
2022-12-04T17:28:26.469Z,101537.63
2022-12-04T17:33:30.264Z,101534.91
2022-12-04T17:38:35.524Z,101542.56
2022-12-04T17:43:39.088Z,101533.41
2022-12-04T17:48:43.040Z,101542.78
2022-12-04T17:53:48.723Z,101553.47
2022-12-04T17:58:52.693Z,101570.06
2022-12-04T18:03:57.645Z,101561.34
2022-12-04T18:09:03.924Z,101567.28
2022-12-04T18:14:11.980Z,101573.38
2022-12-04T18:19:16.424Z,101586.31
2022-12-04T18:24:22.020Z,101596.69
2022-12-04T18:29:27.107Z,101584.00
2022-12-04T18:34:30.668Z,101593.25
2022-12-04T18:39:35.879Z,101597.66
2022-12-04T18:44:39.428Z,101588.94
2022-12-04T18:49:43.054Z,101600.25
2022-12-04T18:54:48.283Z,101580.59
2022-12-04T18:59:52.170Z,101591.66
2022-12-04T19:04:55.702Z,101593.59
2022-12-04T19:10:16.059Z,101598.94
2022-12-04T19:15:20.051Z,101581.88
2022-12-04T19:20:23.615Z,101576.47
2022-12-04T19:25:28.791Z,101571.25
2022-12-04T19:30:34.436Z,101563.19
2022-12-04T19:35:38.006Z,101554.94
2022-12-04T19:40:43.226Z,101548.16
2022-12-04T19:45:49.416Z,101542.41
2022-12-04T19:50:53.049Z,101537.50
2022-12-04T19:55:58.234Z,101536.19
2022-12-04T20:01:02.046Z,101529.91
2022-12-04T20:06:07.281Z,101533.50
2022-12-04T20:11:13.748Z,101522.91
2022-12-04T20:16:18.784Z,101523.34
2022-12-04T20:21:22.853Z,101530.94
2022-12-04T20:26:30.004Z,101522.97
2022-12-04T20:31:35.077Z,101523.72
2022-12-04T20:36:40.895Z,101529.81
2022-12-04T20:41:46.616Z,101529.72
2022-12-04T20:46:50.279Z,101532.69
2022-12-04T20:51:53.943Z,101530.75
2022-12-04T20:56:59.126Z,101536.66
2022-12-04T21:02:02.710Z,101534.78
2022-12-04T21:07:06.551Z,101532.38
2022-12-04T21:12:12.272Z,101538.66
2022-12-04T21:17:17.576Z,101538.53
2022-12-04T21:22:21.244Z,101542.13
2022-12-04T21:27:26.556Z,101534.03
2022-12-04T21:32:30.159Z,101533.50
2022-12-04T21:37:33.705Z,101533.03
2022-12-04T21:42:38.950Z,101551.63
2022-12-04T21:47:42.506Z,101540.50
2022-12-04T21:52:46.056Z,101547.47
2022-12-04T21:57:52.208Z,101553.97
2022-12-04T22:02:55.863Z,101551.13
2022-12-04T22:07:59.481Z,101530.69
2022-12-04T22:13:06.343Z,101553.97
2022-12-04T22:18:10.717Z,101537.50
2022-12-04T22:23:14.300Z,101535.34
2022-12-04T22:28:19.534Z,101528.31
2022-12-04T22:33:23.094Z,101535.19
2022-12-04T22:38:26.657Z,101531.50
2022-12-04T22:43:36.392Z,101534.94
2022-12-04T22:48:44.634Z,101537.41
2022-12-04T22:53:50.229Z,101536.38
2022-12-04T22:58:55.873Z,101548.28
2022-12-04T23:03:59.966Z,101553.53
2022-12-04T23:09:07.049Z,101542.81
2022-12-04T23:14:15.396Z,101552.47
2022-12-04T23:19:20.450Z,101543.66
2022-12-04T23:24:24.135Z,101536.09
2022-12-04T23:29:52.033Z,101535.22
2022-12-04T23:34:53.759Z,101522.03
2022-12-04T23:39:57.582Z,101526.63
2022-12-04T23:45:02.882Z,101525.91
2022-12-04T23:50:07.302Z,101534.69
2022-12-04T23:55:11.097Z,101536.63
